sensor_id;sensor_type;location;lat;lon;timestamp;P1;durP1;ratioP1;P2;durP2;ratioP2
38264;SDS011;24062;47.480;8.768;2023-06-19T00:02:25;3.20;;;2.90;;
38264;SDS011;24062;47.480;8.768;2023-06-19T00:04:52;3.60;;;3.30;;
38264;SDS011;24062;47.480;8.768;2023-06-19T00:07:20;3.70;;;3.40;;
38264;SDS011;24062;47.480;8.768;2023-06-19T00:09:47;3.90;;;3.60;;
38264;SDS011;24062;47.480;8.768;2023-06-19T00:12:14;3.73;;;3.43;;
38264;SDS011;24062;47.480;8.768;2023-06-19T00:14:41;3.60;;;3.30;;
38264;SDS011;24062;47.480;8.768;2023-06-19T00:17:08;6.63;;;3.20;;
38264;SDS011;24062;47.480;8.768;2023-06-19T00:19:36;4.00;;;3.67;;
38264;SDS011;24062;47.480;8.768;2023-06-19T00:22:03;4.10;;;3.30;;
38264;SDS011;24062;47.480;8.768;2023-06-19T00:24:31;3.30;;;3.00;;
38264;SDS011;24062;47.480;8.768;2023-06-19T00:26:58;5.10;;;3.83;;
38264;SDS011;24062;47.480;8.768;2023-06-19T00:29:28;3.80;;;3.50;;
38264;SDS011;24062;47.480;8.768;2023-06-19T00:31:55;3.63;;;3.33;;
38264;SDS011;24062;47.480;8.768;2023-06-19T00:34:22;3.20;;;2.90;;
38264;SDS011;24062;47.480;8.768;2023-06-19T00:36:49;3.90;;;3.60;;
38264;SDS011;24062;47.480;8.768;2023-06-19T00:39:16;3.47;;;3.17;;
38264;SDS011;24062;47.480;8.768;2023-06-19T00:41:44;2.87;;;2.67;;
38264;SDS011;24062;47.480;8.768;2023-06-19T00:44:13;3.10;;;2.83;;
38264;SDS011;24062;47.480;8.768;2023-06-19T00:46:40;3.10;;;2.90;;
38264;SDS011;24062;47.480;8.768;2023-06-19T00:49:07;3.47;;;3.17;;
38264;SDS011;24062;47.480;8.768;2023-06-19T00:51:35;3.37;;;2.83;;
38264;SDS011;24062;47.480;8.768;2023-06-19T00:54:02;2.80;;;2.60;;
38264;SDS011;24062;47.480;8.768;2023-06-19T00:56:29;3.00;;;2.80;;
38264;SDS011;24062;47.480;8.768;2023-06-19T00:58:58;3.30;;;3.00;;
38264;SDS011;24062;47.480;8.768;2023-06-19T01:01:25;3.23;;;2.93;;
38264;SDS011;24062;47.480;8.768;2023-06-19T01:03:52;3.57;;;3.10;;
38264;SDS011;24062;47.480;8.768;2023-06-19T01:06:20;3.40;;;3.10;;
38264;SDS011;24062;47.480;8.768;2023-06-19T01:08:51;3.40;;;3.10;;
38264;SDS011;24062;47.480;8.768;2023-06-19T01:11:23;2.93;;;2.73;;
38264;SDS011;24062;47.480;8.768;2023-06-19T01:14:05;3.40;;;3.10;;
38264;SDS011;24062;47.480;8.768;2023-06-19T01:16:35;3.50;;;3.20;;
38264;SDS011;24062;47.480;8.768;2023-06-19T01:19:03;2.70;;;2.50;;
38264;SDS011;24062;47.480;8.768;2023-06-19T01:21:31;3.27;;;2.97;;
38264;SDS011;24062;47.480;8.768;2023-06-19T01:24:01;3.13;;;2.83;;
38264;SDS011;24062;47.480;8.768;2023-06-19T01:26:27;3.33;;;3.03;;
38264;SDS011;24062;47.480;8.768;2023-06-19T01:28:54;3.20;;;2.90;;
38264;SDS011;24062;47.480;8.768;2023-06-19T01:31:33;3.37;;;3.07;;
38264;SDS011;24062;47.480;8.768;2023-06-19T01:34:03;3.13;;;2.87;;
38264;SDS011;24062;47.480;8.768;2023-06-19T01:36:33;3.20;;;2.90;;
38264;SDS011;24062;47.480;8.768;2023-06-19T01:39:03;3.87;;;3.47;;
38264;SDS011;24062;47.480;8.768;2023-06-19T01:41:30;3.90;;;3.60;;
38264;SDS011;24062;47.480;8.768;2023-06-19T01:43:58;3.37;;;3.07;;
38264;SDS011;24062;47.480;8.768;2023-06-19T01:46:26;3.37;;;3.07;;
38264;SDS011;24062;47.480;8.768;2023-06-19T01:48:53;3.60;;;3.30;;
38264;SDS011;24062;47.480;8.768;2023-06-19T01:51:20;3.10;;;2.90;;
38264;SDS011;24062;47.480;8.768;2023-06-19T01:53:48;3.43;;;3.13;;
38264;SDS011;24062;47.480;8.768;2023-06-19T01:56:16;3.60;;;3.30;;
38264;SDS011;24062;47.480;8.768;2023-06-19T01:58:43;3.23;;;3.00;;
38264;SDS011;24062;47.480;8.768;2023-06-19T02:01:10;3.00;;;2.80;;
38264;SDS011;24062;47.480;8.768;2023-06-19T02:03:37;3.90;;;3.60;;
38264;SDS011;24062;47.480;8.768;2023-06-19T02:06:04;3.40;;;3.10;;
38264;SDS011;24062;47.480;8.768;2023-06-19T02:08:30;3.47;;;3.17;;
38264;SDS011;24062;47.480;8.768;2023-06-19T02:10:57;3.47;;;3.20;;
38264;SDS011;24062;47.480;8.768;2023-06-19T02:13:26;3.17;;;2.97;;
38264;SDS011;24062;47.480;8.768;2023-06-19T02:15:53;3.37;;;3.13;;
38264;SDS011;24062;47.480;8.768;2023-06-19T02:18:20;3.60;;;3.30;;
38264;SDS011;24062;47.480;8.768;2023-06-19T02:20:47;3.37;;;3.10;;
38264;SDS011;24062;47.480;8.768;2023-06-19T02:23:14;3.37;;;3.10;;
38264;SDS011;24062;47.480;8.768;2023-06-19T02:25:40;3.53;;;3.23;;
38264;SDS011;24062;47.480;8.768;2023-06-19T02:28:07;3.07;;;2.87;;
38264;SDS011;24062;47.480;8.768;2023-06-19T02:30:36;4.03;;;3.67;;
38264;SDS011;24062;47.480;8.768;2023-06-19T02:33:03;3.50;;;3.20;;
38264;SDS011;24062;47.480;8.768;2023-06-19T02:35:30;4.03;;;3.33;;
38264;SDS011;24062;47.480;8.768;2023-06-19T02:37:56;3.53;;;3.23;;
38264;SDS011;24062;47.480;8.768;2023-06-19T02:40:24;3.67;;;3.37;;
38264;SDS011;24062;47.480;8.768;2023-06-19T02:42:50;3.40;;;3.10;;
38264;SDS011;24062;47.480;8.768;2023-06-19T02:45:17;3.60;;;3.30;;
38264;SDS011;24062;47.480;8.768;2023-06-19T02:47:46;3.70;;;3.40;;
38264;SDS011;24062;47.480;8.768;2023-06-19T02:50:13;3.00;;;2.70;;
38264;SDS011;24062;47.480;8.768;2023-06-19T02:52:40;4.73;;;3.53;;
38264;SDS011;24062;47.480;8.768;2023-06-19T02:55:07;4.60;;;3.07;;
38264;SDS011;24062;47.480;8.768;2023-06-19T02:57:34;3.80;;;3.50;;
38264;SDS011;24062;47.480;8.768;2023-06-19T03:00:01;3.63;;;3.33;;
38264;SDS011;24062;47.480;8.768;2023-06-19T03:02:31;3.80;;;3.50;;
38264;SDS011;24062;47.480;8.768;2023-06-19T03:04:59;3.30;;;3.00;;
38264;SDS011;24062;47.480;8.768;2023-06-19T03:07:26;3.47;;;3.17;;
38264;SDS011;24062;47.480;8.768;2023-06-19T03:09:53;3.57;;;3.27;;
38264;SDS011;24062;47.480;8.768;2023-06-19T03:12:20;3.17;;;2.90;;
38264;SDS011;24062;47.480;8.768;2023-06-19T03:14:47;3.73;;;3.43;;
38264;SDS011;24062;47.480;8.768;2023-06-19T03:17:14;3.57;;;3.27;;
38264;SDS011;24062;47.480;8.768;2023-06-19T03:19:41;3.63;;;3.17;;
38264;SDS011;24062;47.480;8.768;2023-06-19T03:22:09;4.43;;;3.00;;
38264;SDS011;24062;47.480;8.768;2023-06-19T03:24:36;3.83;;;3.53;;
38264;SDS011;24062;47.480;8.768;2023-06-19T03:27:03;3.60;;;3.30;;
38264;SDS011;24062;47.480;8.768;2023-06-19T03:29:31;3.77;;;3.47;;
38264;SDS011;24062;47.480;8.768;2023-06-19T03:31:58;3.07;;;2.77;;
38264;SDS011;24062;47.480;8.768;2023-06-19T03:34:25;4.17;;;3.80;;
38264;SDS011;24062;47.480;8.768;2023-06-19T03:36:51;3.97;;;3.67;;
38264;SDS011;24062;47.480;8.768;2023-06-19T03:39:20;3.93;;;3.63;;
38264;SDS011;24062;47.480;8.768;2023-06-19T03:41:47;4.30;;;3.60;;
38264;SDS011;24062;47.480;8.768;2023-06-19T03:44:14;4.30;;;3.90;;
38264;SDS011;24062;47.480;8.768;2023-06-19T03:46:41;4.70;;;3.43;;
38264;SDS011;24062;47.480;8.768;2023-06-19T03:49:07;3.73;;;3.40;;
38264;SDS011;24062;47.480;8.768;2023-06-19T03:51:35;3.57;;;3.27;;
38264;SDS011;24062;47.480;8.768;2023-06-19T03:54:02;2.90;;;2.63;;
38264;SDS011;24062;47.480;8.768;2023-06-19T03:56:30;3.83;;;3.53;;
38264;SDS011;24062;47.480;8.768;2023-06-19T03:58:57;3.70;;;3.40;;
38264;SDS011;24062;47.480;8.768;2023-06-19T04:01:24;3.67;;;3.33;;
38264;SDS011;24062;47.480;8.768;2023-06-19T04:03:51;3.57;;;3.27;;
38264;SDS011;24062;47.480;8.768;2023-06-19T04:06:18;3.97;;;3.20;;
38264;SDS011;24062;47.480;8.768;2023-06-19T04:08:45;4.63;;;3.07;;
38264;SDS011;24062;47.480;8.768;2023-06-19T04:11:12;3.20;;;2.90;;
38264;SDS011;24062;47.480;8.768;2023-06-19T04:13:40;3.27;;;2.97;;
38264;SDS011;24062;47.480;8.768;2023-06-19T04:16:07;4.60;;;3.23;;
38264;SDS011;24062;47.480;8.768;2023-06-19T04:18:34;3.60;;;3.27;;
38264;SDS011;24062;47.480;8.768;2023-06-19T04:21:01;6.30;;;3.80;;
38264;SDS011;24062;47.480;8.768;2023-06-19T04:23:28;3.33;;;3.03;;
38264;SDS011;24062;47.480;8.768;2023-06-19T04:25:55;4.07;;;3.17;;
38264;SDS011;24062;47.480;8.768;2023-06-19T04:28:22;4.40;;;3.47;;
38264;SDS011;24062;47.480;8.768;2023-06-19T04:30:50;4.30;;;3.20;;
38264;SDS011;24062;47.480;8.768;2023-06-19T04:33:24;3.70;;;3.40;;
38264;SDS011;24062;47.480;8.768;2023-06-19T04:35:52;4.50;;;3.90;;
38264;SDS011;24062;47.480;8.768;2023-06-19T04:38:19;3.80;;;3.50;;
38264;SDS011;24062;47.480;8.768;2023-06-19T04:40:48;3.70;;;3.37;;
38264;SDS011;24062;47.480;8.768;2023-06-19T04:43:16;3.97;;;3.57;;
38264;SDS011;24062;47.480;8.768;2023-06-19T04:45:43;3.70;;;3.40;;
38264;SDS011;24062;47.480;8.768;2023-06-19T04:48:11;3.47;;;3.20;;
38264;SDS011;24062;47.480;8.768;2023-06-19T04:50:38;10.10;;;3.30;;
38264;SDS011;24062;47.480;8.768;2023-06-19T04:53:05;3.50;;;3.20;;
38264;SDS011;24062;47.480;8.768;2023-06-19T04:55:32;3.70;;;3.40;;
38264;SDS011;24062;47.480;8.768;2023-06-19T04:57:59;3.47;;;3.17;;
38264;SDS011;24062;47.480;8.768;2023-06-19T05:00:26;4.80;;;3.67;;
38264;SDS011;24062;47.480;8.768;2023-06-19T05:02:53;3.80;;;3.50;;
38264;SDS011;24062;47.480;8.768;2023-06-19T05:05:26;4.40;;;3.53;;
38264;SDS011;24062;47.480;8.768;2023-06-19T05:07:53;4.10;;;3.70;;
38264;SDS011;24062;47.480;8.768;2023-06-19T05:10:20;5.03;;;3.60;;
38264;SDS011;24062;47.480;8.768;2023-06-19T05:12:47;4.73;;;3.47;;
38264;SDS011;24062;47.480;8.768;2023-06-19T05:15:14;4.70;;;3.83;;
38264;SDS011;24062;47.480;8.768;2023-06-19T05:17:40;4.07;;;3.67;;
38264;SDS011;24062;47.480;8.768;2023-06-19T05:20:08;3.73;;;3.33;;
38264;SDS011;24062;47.480;8.768;2023-06-19T05:22:38;4.47;;;4.03;;
38264;SDS011;24062;47.480;8.768;2023-06-19T05:25:05;4.10;;;3.50;;
38264;SDS011;24062;47.480;8.768;2023-06-19T05:27:33;7.53;;;3.70;;
38264;SDS011;24062;47.480;8.768;2023-06-19T05:29:59;4.20;;;3.80;;
38264;SDS011;24062;47.480;8.768;2023-06-19T05:32:27;4.10;;;3.80;;
38264;SDS011;24062;47.480;8.768;2023-06-19T05:34:54;3.93;;;3.63;;
38264;SDS011;24062;47.480;8.768;2023-06-19T05:37:20;3.67;;;3.37;;
38264;SDS011;24062;47.480;8.768;2023-06-19T05:39:49;4.17;;;3.77;;
38264;SDS011;24062;47.480;8.768;2023-06-19T05:42:16;3.57;;;3.27;;
38264;SDS011;24062;47.480;8.768;2023-06-19T05:44:43;3.70;;;3.37;;
38264;SDS011;24062;47.480;8.768;2023-06-19T05:47:10;3.90;;;3.43;;
38264;SDS011;24062;47.480;8.768;2023-06-19T05:49:37;7.30;;;3.83;;
38264;SDS011;24062;47.480;8.768;2023-06-19T05:52:06;4.10;;;3.80;;
38264;SDS011;24062;47.480;8.768;2023-06-19T05:54:34;3.97;;;3.57;;
38264;SDS011;24062;47.480;8.768;2023-06-19T05:57:02;4.43;;;4.03;;
38264;SDS011;24062;47.480;8.768;2023-06-19T05:59:30;4.13;;;3.73;;
38264;SDS011;24062;47.480;8.768;2023-06-19T06:01:56;6.30;;;3.60;;
38264;SDS011;24062;47.480;8.768;2023-06-19T06:04:23;4.37;;;3.43;;
38264;SDS011;24062;47.480;8.768;2023-06-19T06:06:50;4.40;;;4.00;;
38264;SDS011;24062;47.480;8.768;2023-06-19T06:09:17;3.70;;;3.17;;
38264;SDS011;24062;47.480;8.768;2023-06-19T06:11:44;3.43;;;3.10;;
38264;SDS011;24062;47.480;8.768;2023-06-19T06:14:13;4.07;;;3.60;;
38264;SDS011;24062;47.480;8.768;2023-06-19T06:16:40;4.20;;;3.80;;
38264;SDS011;24062;47.480;8.768;2023-06-19T06:19:07;4.03;;;3.63;;
38264;SDS011;24062;47.480;8.768;2023-06-19T06:21:34;4.00;;;3.70;;
38264;SDS011;24062;47.480;8.768;2023-06-19T06:24:00;3.80;;;3.10;;
38264;SDS011;24062;47.480;8.768;2023-06-19T06:26:28;4.10;;;2.83;;
38264;SDS011;24062;47.480;8.768;2023-06-19T06:28:54;4.17;;;3.80;;
38264;SDS011;24062;47.480;8.768;2023-06-19T06:31:23;4.13;;;3.73;;
38264;SDS011;24062;47.480;8.768;2023-06-19T06:33:50;3.60;;;3.30;;
38264;SDS011;24062;47.480;8.768;2023-06-19T06:36:17;4.10;;;3.70;;
38264;SDS011;24062;47.480;8.768;2023-06-19T06:38:44;3.60;;;3.30;;
38264;SDS011;24062;47.480;8.768;2023-06-19T06:41:11;3.97;;;3.67;;
38264;SDS011;24062;47.480;8.768;2023-06-19T06:43:39;3.77;;;3.40;;
38264;SDS011;24062;47.480;8.768;2023-06-19T06:46:07;4.50;;;4.10;;
38264;SDS011;24062;47.480;8.768;2023-06-19T06:48:36;3.90;;;3.60;;
38264;SDS011;24062;47.480;8.768;2023-06-19T06:51:04;3.60;;;3.30;;
38264;SDS011;24062;47.480;8.768;2023-06-19T06:53:31;3.63;;;3.33;;
38264;SDS011;24062;47.480;8.768;2023-06-19T06:55:58;3.60;;;3.30;;
38264;SDS011;24062;47.480;8.768;2023-06-19T06:58:26;3.60;;;3.00;;
38264;SDS011;24062;47.480;8.768;2023-06-19T07:00:53;3.90;;;3.30;;
38264;SDS011;24062;47.480;8.768;2023-06-19T07:03:20;5.67;;;3.37;;
38264;SDS011;24062;47.480;8.768;2023-06-19T07:05:48;4.20;;;3.33;;
38264;SDS011;24062;47.480;8.768;2023-06-19T07:08:15;3.37;;;3.07;;
38264;SDS011;24062;47.480;8.768;2023-06-19T07:10:42;3.27;;;3.00;;
38264;SDS011;24062;47.480;8.768;2023-06-19T07:13:09;3.40;;;3.10;;
38264;SDS011;24062;47.480;8.768;2023-06-19T07:15:37;3.27;;;3.00;;
38264;SDS011;24062;47.480;8.768;2023-06-19T07:18:04;3.47;;;3.17;;
38264;SDS011;24062;47.480;8.768;2023-06-19T07:20:31;3.37;;;3.07;;
38264;SDS011;24062;47.480;8.768;2023-06-19T07:22:59;3.93;;;3.37;;
38264;SDS011;24062;47.480;8.768;2023-06-19T07:25:26;3.13;;;2.90;;
38264;SDS011;24062;47.480;8.768;2023-06-19T07:27:53;3.50;;;3.20;;
38264;SDS011;24062;47.480;8.768;2023-06-19T07:30:20;2.80;;;2.60;;
38264;SDS011;24062;47.480;8.768;2023-06-19T07:32:47;3.53;;;3.20;;
38264;SDS011;24062;47.480;8.768;2023-06-19T07:35:14;3.53;;;3.23;;
38264;SDS011;24062;47.480;8.768;2023-06-19T07:37:41;3.63;;;3.33;;
38264;SDS011;24062;47.480;8.768;2023-06-19T07:40:10;4.30;;;3.57;;
38264;SDS011;24062;47.480;8.768;2023-06-19T07:42:38;3.60;;;3.30;;
38264;SDS011;24062;47.480;8.768;2023-06-19T07:45:05;4.03;;;3.63;;
38264;SDS011;24062;47.480;8.768;2023-06-19T07:47:32;3.73;;;3.30;;
38264;SDS011;24062;47.480;8.768;2023-06-19T07:49:59;3.83;;;3.33;;
38264;SDS011;24062;47.480;8.768;2023-06-19T07:52:26;3.77;;;3.40;;
38264;SDS011;24062;47.480;8.768;2023-06-19T07:54:54;14.60;;;6.47;;
38264;SDS011;24062;47.480;8.768;2023-06-19T07:57:24;3.57;;;3.27;;
38264;SDS011;24062;47.480;8.768;2023-06-19T07:59:52;3.43;;;3.13;;
38264;SDS011;24062;47.480;8.768;2023-06-19T08:02:20;3.60;;;3.07;;
38264;SDS011;24062;47.480;8.768;2023-06-19T08:04:47;3.03;;;2.83;;
38264;SDS011;24062;47.480;8.768;2023-06-19T08:07:13;3.17;;;2.87;;
38264;SDS011;24062;47.480;8.768;2023-06-19T08:09:40;4.23;;;3.40;;
38264;SDS011;24062;47.480;8.768;2023-06-19T08:12:07;3.37;;;3.07;;
38264;SDS011;24062;47.480;8.768;2023-06-19T08:14:36;2.43;;;2.17;;
38264;SDS011;24062;47.480;8.768;2023-06-19T08:17:03;4.53;;;3.47;;
38264;SDS011;24062;47.480;8.768;2023-06-19T08:19:31;2.80;;;2.60;;
38264;SDS011;24062;47.480;8.768;2023-06-19T08:21:57;3.17;;;2.97;;
38264;SDS011;24062;47.480;8.768;2023-06-19T08:24:24;3.10;;;2.80;;
38264;SDS011;24062;47.480;8.768;2023-06-19T08:26:51;4.33;;;2.97;;
38264;SDS011;24062;47.480;8.768;2023-06-19T08:29:19;3.40;;;3.10;;
38264;SDS011;24062;47.480;8.768;2023-06-19T08:31:47;3.40;;;3.10;;
38264;SDS011;24062;47.480;8.768;2023-06-19T08:34:14;6.03;;;2.97;;
38264;SDS011;24062;47.480;8.768;2023-06-19T08:36:41;4.07;;;3.30;;
38264;SDS011;24062;47.480;8.768;2023-06-19T08:39:08;2.83;;;2.53;;
38264;SDS011;24062;47.480;8.768;2023-06-19T08:41:36;3.50;;;3.20;;
38264;SDS011;24062;47.480;8.768;2023-06-19T08:44:03;3.20;;;3.00;;
38264;SDS011;24062;47.480;8.768;2023-06-19T08:46:31;3.73;;;3.30;;
38264;SDS011;24062;47.480;8.768;2023-06-19T08:48:59;3.80;;;3.50;;
38264;SDS011;24062;47.480;8.768;2023-06-19T08:51:26;4.10;;;3.70;;
38264;SDS011;24062;47.480;8.768;2023-06-19T08:53:59;3.17;;;2.97;;
38264;SDS011;24062;47.480;8.768;2023-06-19T08:56:28;3.20;;;3.00;;
38264;SDS011;24062;47.480;8.768;2023-06-19T08:59:07;3.50;;;3.20;;
38264;SDS011;24062;47.480;8.768;2023-06-19T09:01:34;3.70;;;3.40;;
38264;SDS011;24062;47.480;8.768;2023-06-19T09:04:09;3.58;;;2.92;;
38264;SDS011;24062;47.480;8.768;2023-06-19T09:06:36;3.90;;;3.60;;
38264;SDS011;24062;47.480;8.768;2023-06-19T09:09:13;3.55;;;3.25;;
38264;SDS011;24062;47.480;8.768;2023-06-19T09:11:40;3.87;;;3.57;;
38264;SDS011;24062;47.480;8.768;2023-06-19T09:14:09;3.47;;;3.00;;
38264;SDS011;24062;47.480;8.768;2023-06-19T09:16:37;3.15;;;2.85;;
38264;SDS011;24062;47.480;8.768;2023-06-19T09:19:05;3.47;;;3.17;;
38264;SDS011;24062;47.480;8.768;2023-06-19T09:21:34;3.10;;;2.80;;
38264;SDS011;24062;47.480;8.768;2023-06-19T09:24:04;3.40;;;3.10;;
38264;SDS011;24062;47.480;8.768;2023-06-19T09:26:32;6.10;;;3.85;;
38264;SDS011;24062;47.480;8.768;2023-06-19T09:29:09;3.20;;;2.90;;
38264;SDS011;24062;47.480;8.768;2023-06-19T09:31:36;3.97;;;3.50;;
38264;SDS011;24062;47.480;8.768;2023-06-19T09:34:04;3.83;;;3.50;;
38264;SDS011;24062;47.480;8.768;2023-06-19T09:36:33;4.30;;;3.90;;
38264;SDS011;24062;47.480;8.768;2023-06-19T09:39:02;3.50;;;3.20;;
38264;SDS011;24062;47.480;8.768;2023-06-19T09:41:29;3.67;;;3.38;;
38264;SDS011;24062;47.480;8.768;2023-06-19T09:43:57;6.25;;;3.28;;
38264;SDS011;24062;47.480;8.768;2023-06-19T09:46:26;5.32;;;3.45;;
38264;SDS011;24062;47.480;8.768;2023-06-19T09:48:56;4.07;;;3.78;;
38264;SDS011;24062;47.480;8.768;2023-06-19T09:51:29;3.78;;;3.47;;
38264;SDS011;24062;47.480;8.768;2023-06-19T09:54:00;3.95;;;3.65;;
38264;SDS011;24062;47.480;8.768;2023-06-19T09:56:29;3.60;;;3.30;;
38264;SDS011;24062;47.480;8.768;2023-06-19T09:58:56;4.00;;;3.70;;
38264;SDS011;24062;47.480;8.768;2023-06-19T10:01:25;4.00;;;3.70;;
38264;SDS011;24062;47.480;8.768;2023-06-19T10:04:01;5.15;;;4.72;;
38264;SDS011;24062;47.480;8.768;2023-06-19T10:06:32;3.78;;;3.47;;
38264;SDS011;24062;47.480;8.768;2023-06-19T10:09:10;3.95;;;3.65;;
38264;SDS011;24062;47.480;8.768;2023-06-19T10:11:47;4.22;;;3.92;;
38264;SDS011;24062;47.480;8.768;2023-06-19T10:14:16;6.50;;;4.35;;
38264;SDS011;24062;47.480;8.768;2023-06-19T10:16:44;5.18;;;4.78;;
38264;SDS011;24062;47.480;8.768;2023-06-19T10:19:11;4.50;;;4.10;;
38264;SDS011;24062;47.480;8.768;2023-06-19T10:21:44;4.13;;;3.83;;
38264;SDS011;24062;47.480;8.768;2023-06-19T10:24:17;4.50;;;4.20;;
38264;SDS011;24062;47.480;8.768;2023-06-19T10:26:55;4.13;;;3.83;;
38264;SDS011;24062;47.480;8.768;2023-06-19T10:29:23;4.60;;;4.30;;
38264;SDS011;24062;47.480;8.768;2023-06-19T10:31:53;4.85;;;4.45;;
38264;SDS011;24062;47.480;8.768;2023-06-19T10:34:22;5.55;;;5.15;;
38264;SDS011;24062;47.480;8.768;2023-06-19T10:36:58;5.07;;;4.78;;
38264;SDS011;24062;47.480;8.768;2023-06-19T10:39:27;4.75;;;4.35;;
38264;SDS011;24062;47.480;8.768;2023-06-19T10:41:54;4.40;;;4.10;;
38264;SDS011;24062;47.480;8.768;2023-06-19T10:44:22;5.18;;;4.80;;
38264;SDS011;24062;47.480;8.768;2023-06-19T10:46:52;4.93;;;4.53;;
38264;SDS011;24062;47.480;8.768;2023-06-19T10:49:19;4.32;;;4.03;;
38264;SDS011;24062;47.480;8.768;2023-06-19T10:51:47;5.55;;;5.15;;
38264;SDS011;24062;47.480;8.768;2023-06-19T10:54:15;4.55;;;4.25;;
38264;SDS011;24062;47.480;8.768;2023-06-19T10:56:44;4.22;;;3.92;;
38264;SDS011;24062;47.480;8.768;2023-06-19T10:59:13;5.28;;;4.88;;
38264;SDS011;24062;47.480;8.768;2023-06-19T11:01:41;4.40;;;4.10;;
38264;SDS011;24062;47.480;8.768;2023-06-19T11:04:09;4.55;;;4.25;;
38264;SDS011;24062;47.480;8.768;2023-06-19T11:06:37;4.80;;;4.50;;
38264;SDS011;24062;47.480;8.768;2023-06-19T11:09:05;4.90;;;4.55;;
38264;SDS011;24062;47.480;8.768;2023-06-19T11:11:36;5.13;;;4.70;;
38264;SDS011;24062;47.480;8.768;2023-06-19T11:14:06;4.63;;;4.32;;
38264;SDS011;24062;47.480;8.768;2023-06-19T11:16:34;5.88;;;5.30;;
38264;SDS011;24062;47.480;8.768;2023-06-19T11:19:01;5.10;;;4.80;;
38264;SDS011;24062;47.480;8.768;2023-06-19T11:21:31;5.28;;;4.88;;
38264;SDS011;24062;47.480;8.768;2023-06-19T11:24:03;5.88;;;5.45;;
38264;SDS011;24062;47.480;8.768;2023-06-19T11:26:33;5.20;;;4.72;;
38264;SDS011;24062;47.480;8.768;2023-06-19T11:29:01;5.03;;;4.57;;
38264;SDS011;24062;47.480;8.768;2023-06-19T11:31:40;5.10;;;4.80;;
38264;SDS011;24062;47.480;8.768;2023-06-19T11:34:07;4.82;;;4.53;;
38264;SDS011;24062;47.480;8.768;2023-06-19T11:36:36;5.70;;;5.30;;
38264;SDS011;24062;47.480;8.768;2023-06-19T11:39:03;5.40;;;5.00;;
38264;SDS011;24062;47.480;8.768;2023-06-19T11:41:35;5.45;;;5.10;;
38264;SDS011;24062;47.480;8.768;2023-06-19T11:44:03;5.00;;;4.70;;
38264;SDS011;24062;47.480;8.768;2023-06-19T11:46:31;5.70;;;5.30;;
38264;SDS011;24062;47.480;8.768;2023-06-19T11:49:10;5.68;;;5.28;;
38264;SDS011;24062;47.480;8.768;2023-06-19T11:51:38;4.93;;;4.63;;
38264;SDS011;24062;47.480;8.768;2023-06-19T11:54:06;5.30;;;4.90;;
38264;SDS011;24062;47.480;8.768;2023-06-19T11:56:34;4.97;;;4.57;;
38264;SDS011;24062;47.480;8.768;2023-06-19T11:59:01;4.70;;;4.40;;
38264;SDS011;24062;47.480;8.768;2023-06-19T12:01:29;4.93;;;4.53;;
38264;SDS011;24062;47.480;8.768;2023-06-19T12:03:57;5.88;;;5.47;;
38264;SDS011;24062;47.480;8.768;2023-06-19T12:06:26;5.30;;;4.90;;
38264;SDS011;24062;47.480;8.768;2023-06-19T12:08:53;6.93;;;4.53;;
38264;SDS011;24062;47.480;8.768;2023-06-19T12:11:20;5.95;;;5.10;;
38264;SDS011;24062;47.480;8.768;2023-06-19T12:13:47;5.60;;;5.20;;
38264;SDS011;24062;47.480;8.768;2023-06-19T12:16:14;4.88;;;4.47;;
38264;SDS011;24062;47.480;8.768;2023-06-19T12:18:41;5.47;;;5.07;;
38264;SDS011;24062;47.480;8.768;2023-06-19T12:21:08;5.35;;;4.95;;
38264;SDS011;24062;47.480;8.768;2023-06-19T12:23:37;5.03;;;4.60;;
38264;SDS011;24062;47.480;8.768;2023-06-19T12:26:03;6.28;;;5.05;;
38264;SDS011;24062;47.480;8.768;2023-06-19T12:28:30;5.03;;;4.63;;
38264;SDS011;24062;47.480;8.768;2023-06-19T12:30:57;5.05;;;4.55;;
38264;SDS011;24062;47.480;8.768;2023-06-19T12:33:25;4.82;;;4.32;;
38264;SDS011;24062;47.480;8.768;2023-06-19T12:35:58;4.85;;;4.10;;
38264;SDS011;24062;47.480;8.768;2023-06-19T12:38:25;4.60;;;4.30;;
38264;SDS011;24062;47.480;8.768;2023-06-19T12:40:54;4.28;;;3.88;;
38264;SDS011;24062;47.480;8.768;2023-06-19T12:43:20;5.53;;;5.13;;
38264;SDS011;24062;47.480;8.768;2023-06-19T12:45:47;5.20;;;4.70;;
38264;SDS011;24062;47.480;8.768;2023-06-19T12:48:14;4.47;;;4.18;;
38264;SDS011;24062;47.480;8.768;2023-06-19T12:50:42;5.00;;;4.60;;
38264;SDS011;24062;47.480;8.768;2023-06-19T12:53:09;4.75;;;4.45;;
38264;SDS011;24062;47.480;8.768;2023-06-19T12:55:36;4.85;;;4.55;;
38264;SDS011;24062;47.480;8.768;2023-06-19T12:58:04;4.90;;;4.50;;
38264;SDS011;24062;47.480;8.768;2023-06-19T13:00:31;5.07;;;4.68;;
38264;SDS011;24062;47.480;8.768;2023-06-19T13:02:58;5.35;;;4.95;;
38264;SDS011;24062;47.480;8.768;2023-06-19T13:05:25;4.45;;;4.05;;
38264;SDS011;24062;47.480;8.768;2023-06-19T13:07:52;4.38;;;3.97;;
38264;SDS011;24062;47.480;8.768;2023-06-19T13:10:19;5.43;;;4.72;;
38264;SDS011;24062;47.480;8.768;2023-06-19T13:12:47;5.03;;;4.32;;
38264;SDS011;24062;47.480;8.768;2023-06-19T13:15:15;6.50;;;4.35;;
38264;SDS011;24062;47.480;8.768;2023-06-19T13:17:42;5.97;;;4.00;;
38264;SDS011;24062;47.480;8.768;2023-06-19T13:20:09;4.55;;;4.22;;
38264;SDS011;24062;47.480;8.768;2023-06-19T13:22:36;4.85;;;4.55;;
38264;SDS011;24062;47.480;8.768;2023-06-19T13:25:04;3.80;;;3.50;;
38264;SDS011;24062;47.480;8.768;2023-06-19T13:27:31;5.50;;;5.05;;
38264;SDS011;24062;47.480;8.768;2023-06-19T13:30:00;4.22;;;3.83;;
38264;SDS011;24062;47.480;8.768;2023-06-19T13:32:29;4.60;;;4.30;;
38264;SDS011;24062;47.480;8.768;2023-06-19T13:34:55;4.07;;;3.78;;
38264;SDS011;24062;47.480;8.768;2023-06-19T13:37:23;4.22;;;3.92;;
38264;SDS011;24062;47.480;8.768;2023-06-19T13:39:50;5.10;;;4.65;;
38264;SDS011;24062;47.480;8.768;2023-06-19T13:42:17;4.47;;;4.18;;
38264;SDS011;24062;47.480;8.768;2023-06-19T13:44:43;4.50;;;4.10;;
38264;SDS011;24062;47.480;8.768;2023-06-19T13:47:10;4.53;;;4.13;;
38264;SDS011;24062;47.480;8.768;2023-06-19T13:49:39;4.80;;;4.40;;
38264;SDS011;24062;47.480;8.768;2023-06-19T13:52:06;4.78;;;4.45;;
38264;SDS011;24062;47.480;8.768;2023-06-19T13:54:33;4.32;;;3.92;;
38264;SDS011;24062;47.480;8.768;2023-06-19T13:57:00;4.38;;;4.07;;
38264;SDS011;24062;47.480;8.768;2023-06-19T13:59:27;4.85;;;4.10;;
38264;SDS011;24062;47.480;8.768;2023-06-19T14:01:54;4.20;;;3.90;;
38264;SDS011;24062;47.480;8.768;2023-06-19T14:04:21;4.72;;;4.40;;
38264;SDS011;24062;47.480;8.768;2023-06-19T14:06:49;4.20;;;3.90;;
38264;SDS011;24062;47.480;8.768;2023-06-19T14:09:16;4.38;;;4.03;;
38264;SDS011;24062;47.480;8.768;2023-06-19T14:11:43;4.40;;;3.90;;
38264;SDS011;24062;47.480;8.768;2023-06-19T14:14:10;4.60;;;4.30;;
38264;SDS011;24062;47.480;8.768;2023-06-19T14:16:37;4.45;;;4.15;;
38264;SDS011;24062;47.480;8.768;2023-06-19T14:19:04;5.85;;;4.07;;
38264;SDS011;24062;47.480;8.768;2023-06-19T14:21:31;5.30;;;4.47;;
38264;SDS011;24062;47.480;8.768;2023-06-19T14:23:59;5.28;;;4.88;;
38264;SDS011;24062;47.480;8.768;2023-06-19T14:26:26;4.68;;;4.38;;
38264;SDS011;24062;47.480;8.768;2023-06-19T14:28:54;6.70;;;5.22;;
38264;SDS011;24062;47.480;8.768;2023-06-19T14:31:22;4.95;;;4.53;;
38264;SDS011;24062;47.480;8.768;2023-06-19T14:33:49;4.60;;;4.30;;
38264;SDS011;24062;47.480;8.768;2023-06-19T14:36:16;4.40;;;4.10;;
38264;SDS011;24062;47.480;8.768;2023-06-19T14:38:43;4.78;;;4.47;;
38264;SDS011;24062;47.480;8.768;2023-06-19T14:41:11;4.80;;;4.40;;
38264;SDS011;24062;47.480;8.768;2023-06-19T14:43:38;5.13;;;4.72;;
38264;SDS011;24062;47.480;8.768;2023-06-19T14:46:05;4.60;;;4.30;;
38264;SDS011;24062;47.480;8.768;2023-06-19T14:48:32;4.32;;;4.03;;
38264;SDS011;24062;47.480;8.768;2023-06-19T14:51:00;4.63;;;4.32;;
38264;SDS011;24062;47.480;8.768;2023-06-19T14:53:27;4.53;;;4.22;;